Sei sulla pagina 1di 10

GF CASTELLO DI MONTERIGGIONI

MONTERIGGIONI (SI) 17/10/2021


LUNGO (54 KM)

Pos Nr. Nominativo Atleta G Nato il Cat Pos Nome Squadra Tempo RTime Km/h
1 5 LONGO Tony M 1984 OPEN 1 SOUDAL LEECOUGAN MTB RACING TEAM 02:17:50.19 00:00:00.00 01:08:55
2 36 CASAGRANDE Francesco M 1970 OPEN 2 CICLI TADDEI 02:18:02.19 00:00:00.00 01:09:01
3 4 VALDRIGHI Stefano M 1994 OPEN 3 SOUDAL LEECOUGAN MTB RACING TEAM 02:21:19.68 00:00:00.00 01:10:39
4 22 HOFER Franz M 1981 OPEN 4 NEW BIKE 2008 RACING TEAM 02:21:39.68 00:00:00.00 01:10:49
5 1 MEDVEDEV Aleksei M 1983 OPEN 5 SOUDAL LEECOUGAN MTB RACING TEAM 02:22:30.93 00:00:00.00 01:11:15
6 202 VALSECCHI Matteo M 1991 M1 1 TEAM SPACEBIKES 02:24:02.94 00:00:00.00 01:12:01
7 7 LAPOSSE Lorenzo M 1991 OPEN 6 ASD SIXS BOSCARO 02:24:40.94 00:00:00.00 01:12:20
8 2 MENSI Daniele M 1988 OPEN 7 SOUDAL LEECOUGAN MTB RACING TEAM 02:25:18.93 00:00:00.00 01:12:39
9 37 GALLI Giulio M 1999 OPEN 8 CICLI TADDEI 02:25:22.94 00:00:00.00 01:12:41
10 8 PIERPAOLI Lorenzo M 1989 OPEN 9 TEAM CINGOLANI 02:25:27.93 00:00:00.00 01:12:43
11 105 GALEOTTI Marco M 1991 M1 2 TUTTO BIKE TEAM 02:25:30.00 00:00:00.00 01:12:45
12 39 ACCO Francesco M 1994 OPEN 10 ASD CICLISSIMO BIKE TEAM 02:26:07.18 00:00:00.00 01:13:03
13 92 SPINETTI Matteo M 1993 ELMT 1 ASD CICLISSIMO BIKE TEAM 02:26:14.43 00:00:00.00 01:13:07
14 129 ACCORDI Luca M 1994 ELMT 2 CICLI TADDEI 02:26:28.67 00:00:00.00 01:13:14
15 174 VANNI Tommaso M 1987 M1 3 CICLI TADDEI 02:26:47.43 00:00:00.00 01:13:23
16 142 D'ORIA Andrea M 1985 M2 1 CICLI TADDEI 02:27:58.42 00:00:00.00 01:13:59
17 41 DESANTIS Alessandro M 1997 OPEN 11 MTB CLUB SPOLETO 02:28:16.42 00:00:00.00 01:14:08
18 21 MARINCIONI Diego M 1989 OPEN 12 PASSATEMPO CYCLING TEAM ASD 02:28:25.43 00:00:00.00 01:14:12
19 23 PANARIELLO Giuseppe M 1998 OPEN 13 NEW BIKE 2008 RACING TEAM 02:28:33.68 00:00:00.00 01:14:16
20 206 TASSETTI Daniel M 1996 ELMT 3 TEAM TODESCO 02:28:46.17 00:00:00.00 01:14:23
21 200 PANIZ Luca M 1975 M4 1 TEAM SPACEBIKES 02:29:00.68 00:00:00.00 01:14:30
22 19 FURIASSE Nicola M 2002 OPEN 14 TEAM CINGOLANI 02:29:03.68 00:00:00.00 01:14:31
23 189 TONELLO Alessandro M 1985 M2 2 LISSONE MTB ASD 02:29:07.17 00:00:00.00 01:14:33
24 192 LANZI Stefano M 1975 M4 2 LISSONE MTB ASD 02:29:21.68 00:00:00.00 01:14:40
25 74 RICCI Federico M 1983 M2 3 TEAM SCOTT PASQUINI STELLA AZZURRA 02:29:26.92 00:00:00.00 01:14:43
26 168 ROSSI Daniele M 1985 M2 4 ASD POLISPORTIVA INDICATORE TEAM SPECIALIZED 02:29:30.68 00:00:00.00 01:14:45
27 30 SCOTTI Federico M 1986 OPEN 15 ASD BIKING RACING TEAM 02:29:33.18 00:00:00.00 01:14:46
28 266 PASTUSHENKO Yan M 1996 ELMT 4 CICLI TADDEI 02:29:43.92 00:00:00.00 01:14:51
29 75 BROVELLI Giulio M 2002 ELMT 5 TEAM SCOTT PASQUINI STELLA AZZURRA 02:30:38.43 00:00:00.00 01:15:19
30 223 GUIDI Lorenzo M 1993 ELMT 6 ASD ZEROSEI CYCLING TEAM 02:31:10.43 00:00:00.00 01:15:35
31 87 PINI Marco M 1991 M1 4 NEW BIKE 2008 RACING TEAM 02:31:19.18 00:00:00.00 01:15:39
32 205 ZAMPEDRI Luca M 1976 M4 3 TEAM TODESCO 02:31:21.67 00:00:00.00 01:15:40
33 170 SERENI Alessandro M 1998 ELMT 7 CICLI TADDEI 02:31:29.19 00:00:00.00 01:15:44
34 178 MALUSARDI Daniele M 1992 ELMT 8 ASD GREEN DEVILS 02:31:37.93 00:00:00.00 01:15:48
35 186 RIZZI Riccardo M 1982 M2 5 LISSONE MTB ASD 02:31:48.93 00:00:00.00 01:15:54
36 126 URBINATI Luca M 1984 M2 6 TEAM MONDOBICI TECNOPLAST 02:32:01.92 00:00:00.00 01:16:00
37 12 ANGIOLINI Bernardo M 2002 OPEN 16 GRAGNANO SPORTING CLUB ASD 02:32:35.67 00:00:00.00 01:16:17
38 191 FINAZZI Mattia M 1991 M1 5 LISSONE MTB ASD 02:32:52.67 00:00:00.00 01:16:26
39 261 PUCCIARELLI Enrico M 1992 ELMT 9 NEW BIKE 2008 RACING TEAM 02:33:02.92 00:00:00.00 01:16:31
40 159 NOCENTI Sauro M 1970 M5 1 ASD POLISPORTIVA INDICATORE TEAM SPECIALIZED 02:33:42.42 00:00:00.00 01:16:51
41 6 PATUELLI Pietro M 1999 OPEN 17 SOUDAL LEECOUGAN MTB RACING TEAM 02:34:02.17 00:00:00.00 01:17:01
42 393 PACISCOPI ROSA Niccolo' M 1989 M1 6 GS POCCIANTI 02:34:31.71 00:00:00.00 01:17:15
43 203 SEGATA Claudio M 1973 M4 4 TEAM TODESCO 02:34:36.92 00:00:00.00 01:17:18
44 195 ALLONI Marco M 1986 M2 7 TEAM SPACEBIKES 02:34:37.17 00:00:00.00 01:17:18
45 208 BAZZANELLA Michele M 1969 M5 2 TEAM TODESCO 02:35:32.66 00:00:00.00 01:17:46
46 27 VARNI Niccolo' M 2001 OPEN 18 NEW BIKE 2008 RACING TEAM 02:35:33.66 00:00:00.00 01:17:46
47 169 TINI Francesco M 1991 M1 7 UC PETRIGNANO 02:35:40.17 00:00:00.00 01:17:50
48 237 FILETTI Michael M 1992 ELMT 10 TEAM MONDOBICI TECNOPLAST 02:35:43.41 00:00:00.00 01:17:51
49 25 MAZZOLA Gianantonio M 2001 OPEN 19 NEW BIKE 2008 RACING TEAM 02:35:49.92 00:00:00.00 01:17:54
50 154 MASONI Emanuele M 1978 M3 1 MONKEY RACING TEAM 02:35:55.16 00:00:00.00 01:17:57
51 167 ROSATI Daniele M 1985 M2 8 FACTORY TEAM BATTIFOLLE 02:36:03.41 00:00:00.00 01:18:01
52 103 GASPARRI Enrico M 1994 ELMT 11 TEAM CINGOLANI 02:36:06.17 00:00:00.00 01:18:03
53 230 MENGHETTI Peter M 1998 ELMT 12 VELO CLUB GARDA 02:36:17.92 00:00:00.00 01:18:08
54 24 SERVADEI Riccardo M 2002 OPEN 20 NEW BIKE 2008 RACING TEAM 02:36:18.82 00:00:00.00 01:18:09
55 198 DINALE Davide M 1978 M3 2 TEAM SPACEBIKES 02:36:36.42 00:00:00.00 01:18:18
56 125 RIPA Stefano M 1981 M3 3 ASDC VALLE DEL CONCA NORDIC WALKING 02:36:37.42 00:00:00.00 01:18:18
57 31 OLIVERI Fabio M 1981 OPEN 21 ASD TORPADO-SUDTIROL INTERNATIONAL MTB PRO TEAM
02:36:47.17 00:00:00.00 01:18:23
58 104 MOROZZI Nicola M 1966 M6 1 TUTTO BIKE TEAM 02:36:50.41 00:00:00.00 01:18:25
59 143 FADINI Federico M 1994 ELMT 13 ASD BIKING RACING TEAM 02:36:58.42 00:00:00.00 01:18:29
60 260 SANTACROCE Salvatore M 1982 M2 9 TUTTO BIKE TEAM 02:37:00.66 00:00:00.00 01:18:30

Classifiche Elaborate da SMS Sport


Pag. 1/10
GF CASTELLO DI MONTERIGGIONI
MONTERIGGIONI (SI) 17/10/2021
LUNGO (54 KM)

Pos Nr. Nominativo Atleta G Nato il Cat Pos Nome Squadra Tempo RTime Km/h
61 252 MIGNOLI Francesco M 1991 M1 8 VEE TIRE CO TEAM RACE 02:37:01.91 00:00:00.00 01:18:30
62 184 GALEOTALANZA Antonio M 1983 M2 10 BONFANTI RACING TEAM 02:37:09.41 00:00:00.00 01:18:34
63 160 PAPAVERI Renato M 1965 M6 2 ASD POLISPORTIVA INDICATORE TEAM SPECIALIZED 02:37:09.91 00:00:00.00 01:18:34
64 85 PRUNETI Guido M 1976 M4 5 ASD ZEROZERO TEAM 02:37:13.41 00:00:00.00 01:18:36
65 271 GAMBELLI Massimo M 1971 M5 3 TEAM CINGOLANI 02:37:13.91 00:00:00.00 01:18:36
66 140 CORSETTI Nicola M 1981 M3 4 GS AVIS PRATOVECCHIO 02:38:50.91 00:00:00.00 01:19:25
67 246 BARABESI Mattia M 1989 M1 9 DONKEY BIKE CLUB SINALUNGA 02:39:26.91 00:00:00.00 01:19:43
68 110 TONDINI Mirko M 1996 ELMT 14 TEAM GIOVANNELLI 02:39:36.15 00:00:00.00 01:19:48
69 86 BRUE' Nicola M 1989 M1 10 ASD RAVEN TEAM 02:39:47.66 00:00:00.00 01:19:53
70 2152 ROSSETTI Lorenzo M 1995 ELMT 15 NEW BIKE 2008 RACING TEAM 02:40:10.16 00:00:00.00 01:20:05
71 146 FORMELLI Alessandro M 1979 M3 5 ASD POLISPORTIVA INDICATORE TEAM SPECIALIZED 02:40:18.91 00:00:00.00 01:20:09
72 145 FIORENTINI Francesco M 1974 M4 6 CICLI TADDEI 02:40:24.66 00:00:00.00 01:20:12
73 73 PORCIATTI Giulio M 1994 ELMT 16 ASD CICLISSIMO BIKE TEAM 02:40:26.16 00:00:00.00 01:20:13
74 226 BOTTARINI Jacopo emanuele M 1976 M4 7 HR TEAM 02:40:30.65 00:00:00.00 01:20:15
75 113 MARIANI Luca M 1969 M5 4 TEAM ORSO ON BIKE ASD 02:40:37.39 00:00:00.00 01:20:18
76 211 BORGOGNO Andrea M 1979 M3 6 TEAM TODESCO 02:41:19.65 00:00:00.00 01:20:39
77 164 PELLEGRINI Emiliano M 1970 M5 5 ASD STAR BIKE 02:41:33.16 00:00:00.00 01:20:46
78 709 SANTOLINI Cristiano M 1993 ELMT 17 PASSATEMPO CYCLING TEAM ASD 02:41:49.65 00:00:00.00 01:20:54
79 640 LIVI Lorenzo M 1981 M3 7 ACD TEAM BIKE MIRANDA 02:41:49.90 00:00:00.00 01:20:54
80 2285 TORNAGHI Sacha M 1991 M1 11 TEAM TODESCO 02:41:54.16 00:00:00.00 01:20:57
81 32 TOCCAFONDI Mattia M 2001 OPEN 22 ASD ZEROZERO TEAM 02:42:00.40 00:00:00.00 01:21:00
82 264 CORSETTI Francesco M 1981 M3 8 GS AVIS PRATOVECCHIO 02:42:17.90 00:00:00.00 01:21:08
83 82 UBALDINI Massimo M 1963 M6 3 GC TONDI SPORT 02:42:21.15 00:00:00.00 01:21:10
84 26 SEMENZATO Marcello M 1999 OPEN 23 NEW BIKE 2008 RACING TEAM 02:42:53.16 00:00:00.00 01:21:26
85 179 CASOTTO Luca M 1972 M4 8 ASD RACING TEAM RIVE ROSSE 02:43:08.65 00:00:00.00 01:21:34
86 88 CHIARINI Luca M 1978 M3 9 BOMBARDIER SQUADRA CORSE ASD 02:43:21.15 00:00:00.00 01:21:40
87 181 MENGHINI Alessandro M 1992 ELMT 18 ASD CHERO GROUP TEAM SFRENATI 02:43:37.90 00:00:00.00 01:21:48
88 81 NANNETTI Nikolas M 1990 M1 12 VITAMINA TEAM 02:43:42.41 00:00:00.00 01:21:51
89 407 LICCIONE Rodolfo M 1974 M4 9 ASD TUTTINSELLA 02:43:48.15 00:00:00.00 01:21:54
90 663 RUZZA Alessio M 1986 M2 11 ASD BIKE SHOCK TEAM 02:44:07.65 00:00:00.00 01:22:03
91 183 SCIARRA Marco M 1971 M5 6 TEAM MARCHISIO BICI 02:44:12.16 00:00:00.00 01:22:06
92 258 MESSANO Daniele M 1970 M5 7 TUTTO BIKE TEAM 02:44:25.40 00:00:00.00 01:22:12
93 134 BIGI Marco M 1975 M4 10 ASD BIKING RACING TEAM 02:44:38.40 00:00:00.00 01:22:19
94 166 POLI Massimo M 1971 M5 8 NEW BIKE 2008 RACING TEAM 02:44:45.40 00:00:00.00 01:22:22
95 255 TURCONI Ivan angelo M 1982 M2 12 ASD TEAM BIKE PALOMBARA SABINA 02:44:47.90 00:00:00.00 01:22:23
96 798 MANFRELLOTTI Luca M 1992 ELMT 19 ASD CICLISSIMO BIKE TEAM 02:44:59.15 00:00:00.00 01:22:29
97 219 BRANDINI Alessio M 1966 M6 4 DONKEY BIKE CLUB SINALUNGA 02:45:00.39 00:00:00.00 01:22:30
98 870 CEREDI Daniele M 1978 M3 10 ESSERE ASD ARL 02:45:13.16 00:00:00.00 01:22:36
99 20 SCACCIAFERRO Pietro M 2001 OPEN 24 SCOTT LIBARNA XCO 02:45:17.65 00:00:00.00 01:22:38
100 209 BOLLO Andrea M 1974 M4 11 TEAM TODESCO 02:45:18.15 00:00:00.00 01:22:39
101 224 MONTELLA Enrico M 1967 M5 9 ASD STAR BIKE 02:45:21.41 00:00:00.00 01:22:40
102 2309 DELFINO Andrea M 1993 ELMT 20 LISSONE MTB ASD 02:45:55.65 00:00:00.00 01:22:57
103 155 MAZZONI Marco M 1972 M4 12 TEAM PROMOTECH 02:46:32.15 00:00:00.00 01:23:16
104 600 DINA Valerio M 1987 M1 13 FLAMINIA BIKE ASD 02:46:42.65 00:00:00.00 01:23:21
105 132 BENINI Alessandro M 1984 M2 13 MTB CAPALBIO ASD 02:46:48.14 00:00:00.00 01:23:24
106 2014 VITALI Alberto M 1970 M5 10 TEAM CINGOLANI 02:46:57.89 00:00:00.00 01:23:28
107 131 BATTISTINI Andrea M 1965 M6 5 CICLI TADDEI 02:47:04.90 00:00:00.00 01:23:32
108 148 GERINI Maurizio M 1972 M4 13 TEAM ERREPI ASD 02:47:25.40 00:00:00.00 01:23:42
109 152 GUGLIELMI Matteo M 1972 M4 14 ESSERE ASD ARL 02:47:27.89 00:00:00.00 01:23:43
110 217 SARIGU Claudio M 1969 M5 11 TEAM OLIVETO ASD 02:47:32.40 00:00:00.00 01:23:46
111 241 COLAIACOVO Matteo M 1984 M2 14 ASD BIKE SHOCK TEAM 02:47:35.65 00:00:00.00 01:23:47
112 17 SCIPIONI Silvia F 1984 DE 1 CICLI TADDEI 02:47:37.89 00:00:00.00 01:23:48
113 229 FIRENZE Maurizio M 1966 M6 6 ASD BY BIKE 02:48:02.40 00:00:00.00 01:24:01
114 172 TALOZZI Federico M 1971 M5 12 ASD I MUFLONI RACING TEAM 02:48:16.14 00:00:00.00 01:24:08
115 256 FONTANA Franco M 1969 M5 13 CICLI BRANDI ELBA TEAM 02:48:25.39 00:00:00.00 01:24:12
116 2012 PROIETTI Marsilio M 1975 M4 15 GC VITERBESE 02:48:25.39 00:00:00.00 01:24:12
117 2270 BRUNI Federico M 1969 M5 14 AVIS VERAG PRATO EST 02:48:54.64 00:00:00.00 01:24:27
118 2225 SANTONI Luca M 1982 M2 15 ASD STAR BIKE 02:49:17.39 00:00:00.00 01:24:38
119 749 NAVARRA Leonardo M 1988 M1 14 ASD SIMONE BIKE 02:49:58.40 00:00:00.00 01:24:59
120 218 BRUSCHETTI Sandro M 1964 M6 7 ASD BICI E SPORT 02:50:06.89 00:00:00.00 01:25:03

Classifiche Elaborate da SMS Sport


Pag. 2/10
GF CASTELLO DI MONTERIGGIONI
MONTERIGGIONI (SI) 17/10/2021
LUNGO (54 KM)

Pos Nr. Nominativo Atleta G Nato il Cat Pos Nome Squadra Tempo RTime Km/h
121 156 MAZZORANA Sara F 1995 W1 1 BIKE THERAPY ASD 02:50:09.40 00:00:00.00 01:25:04
122 257 ROMAGNOLI Tommaso M 1969 M5 15 CICLI TADDEI 02:50:11.65 00:00:00.00 01:25:05
123 207 VASSANELLI Diego M 1961 M7 1 TEAM TODESCO 02:50:13.39 00:00:00.00 01:25:06
124 2103 MEONI Lorenzo M 1984 M2 16 CICLO CLUB QUOTA MILLE 02:50:20.40 00:00:00.00 01:25:10
125 96 RUGGERO Franco M 1966 M6 8 GS BIKE ACTION TEAM GALGIANA 02:50:21.15 00:00:00.00 01:25:10
126 263 BUGLIESI Andrea M 1976 M4 16 CICLI TADDEI 02:50:22.15 00:00:00.00 01:25:11
127 232 FENATI Gianluca M 1971 M5 16 ASD IMOLA BIKE 02:50:53.64 00:00:00.00 01:25:26
128 700 MARCHETTI Matteo M 2000 ELMT 21 LE SORELLE ASD 02:50:55.39 00:00:00.00 01:25:27
129 743 SILVANI Alessandro M 1977 M3 11 ASD VITTORIO BIKE MONTEFOGLIANO 02:51:07.90 00:00:00.00 01:25:33
130 121 CANAPINI Giovanni M 1965 M6 9 GC VAL DI MERSE 02:51:23.14 00:00:00.00 01:25:41
131 259 GORI Nicola M 1973 M4 17 ASD LARIS BIKE 02:51:30.89 00:00:00.00 01:25:45
132 190 RIVOLTA Cristian M 1979 M3 12 LISSONE MTB ASD 02:51:49.65 00:00:00.00 01:25:54
133 396 BALDASSARRI Riccardo M 1979 M3 13 ASD AMERICA SPORT 02:51:53.14 00:00:00.00 01:25:56
134 419 ZOCCO Angelo franco M 1977 M3 14 POLISPORTIVA BERNATE 02:51:56.39 00:00:00.00 01:25:58
135 2043 BOSSINI Leonardo M 1976 M4 18 D.F. BIKE 02:52:01.64 00:00:00.00 01:26:00
136 337 TASIN Maurizio M 1969 M5 17 SUPREME CYCLING TEAM 02:53:03.39 00:00:00.00 01:26:31
137 251 VALLERI Valter M 1963 M6 10 NEW BIKE 2008 RACING TEAM 02:53:12.14 00:00:00.00 01:26:36
138 397 TONIN Gianni M 1962 M6 11 ASD SAN BORTOLO 02:53:39.39 00:00:00.00 01:26:49
139 790 BOTTONE Massimiliano M 1974 M4 19 GS CICLI GAUDENZI 02:53:46.13 00:00:00.00 01:26:53
140 2244 ZIBELLINI Massimo M 1980 M3 15 CICLI TADDEI 02:54:08.64 00:00:00.00 01:27:04
141 664 ROMANO Giuseppe M 1985 M2 17 GS CICLI EFFE EFFE 02:54:17.39 00:00:00.00 01:27:08
142 18 PIANA Debora F 1989 DE 2 TEAM CINGOLANI 02:54:17.64 00:00:00.00 01:27:08
143 250 CENTI Luca M 1969 M5 18 ASD TOSCANA DYNAMO PISTOIA 02:54:19.14 00:00:00.00 01:27:09
144 2023 DEL PUGLIA Riccardo M 1997 ELMT 22 TUSCANY NATURAL TRAIL LEVANE 02:54:19.15 00:00:00.00 01:27:09
145 141 DEL CORSO Franco M 1964 M6 12 CICLI TADDEI 02:54:35.90 00:00:00.00 01:27:17
146 735 LEONCINI Matteo M 1980 M3 16 ASD SCATENATI VAL DI PESA 02:54:58.39 00:00:00.00 01:27:29
147 792 PERUZZI Roberto M 1971 M5 19 ASD CICLISSIMO BIKE TEAM 02:55:00.64 00:00:00.00 01:27:30
148 2312 RIZZI Walter M 1981 M3 17 LISSONE MTB ASD 02:55:14.88 00:00:00.00 01:27:37
149 177 TOGNETTI Simone M 1971 M5 20 TBR CERTALDO 02:55:17.39 00:00:00.00 01:27:38
150 83 TORTOLANI Ugo M 1971 M5 21 BOMBARDIER SQUADRA CORSE ASD 02:55:29.14 00:00:00.00 01:27:44
151 392 PARENTI Lorenzo M 1966 M6 13 GS POCCIANTI 02:56:03.88 00:00:00.00 01:28:01
152 2317 BELTRAMINI Maurizio M 1976 M4 20 TEAM SPACEBIKES 02:56:15.89 00:00:00.00 01:28:07
153 2183 ALINARI Milko M 1973 M4 21 CICLI CONTI GS 02:56:25.64 00:00:00.00 01:28:12
154 162 PARRI Riccardo M 1988 M1 15 ASD MTB CLUB CECINA 02:56:45.36 00:00:00.00 01:28:22
155 267 ROSSI Matteo M 1976 M4 22 ASD MTB CLUB CECINA 02:56:45.39 00:00:00.00 01:28:22
156 90 GALATOLO Marco M 1971 M5 22 ASD MTBIKE ARGENTARIO 02:56:55.39 00:00:00.00 01:28:27
157 876 CREZZINI Emanuele M 1976 M4 23 ASD LARIS BIKE 02:56:56.64 00:00:00.00 01:28:28
158 150 GIOMBETTI Giancarlo M 1969 M5 23 BIKE THERAPY ASD 02:57:03.13 00:00:00.00 01:28:31
159 2049 VAGNOLI Mauro M 1963 M6 14 GS AVIS PRATOVECCHIO 02:57:04.13 00:00:00.00 01:28:32
160 234 MARINI Mirko M 1983 M2 18 ASD CICLOSPORT POGGIBONSI 02:57:15.39 00:00:00.00 01:28:37
161 2133 TRONCONI Simone M 1975 M4 24 POL.MARINA DI CECINA SEZ CICLISMO 02:57:25.67 00:00:00.00 01:28:42
162 632 SABATO Antonio M 1996 ELMT 23 CICLOPICENTIA ASD 02:57:27.89 00:00:00.00 01:28:43
163 117 LAMBERTINI Luca M 1964 M6 15 VEE TIRE CO TEAM RACE 02:57:29.88 00:00:00.00 01:28:44
164 128 CITTADINI Daniele M 1972 M4 25 POLISPORTIVA SANGIULIANESE 02:57:31.13 00:00:00.00 01:28:45
165 746 BELNOME Marco M 1974 M4 26 ASD LARIS BIKE 02:57:37.14 00:00:00.00 01:28:48
166 797 CIOLLI Alessio M 1992 ELMT 24 ASD CICLISSIMO BIKE TEAM 02:57:45.64 00:00:00.00 01:28:52
167 460 BALDELLA Marco M 1978 M3 18 BIKE RACING TEAM ASD 02:57:54.13 00:00:00.00 01:28:57
168 2229 MANNINI Fabio M 1973 M4 27 LIVORNO TEAM BIKE ASD 02:57:54.14 00:00:00.00 01:28:57
169 240 LORENZI Elia M 1994 ELMT 25 TEAM TODESCO 02:57:57.39 00:00:00.00 01:28:58
170 210 BIASIOLI Andrea M 1983 M2 19 TEAM TODESCO 02:57:57.64 00:00:00.00 01:28:58
171 2105 D'ANNUNZIO Fabio M 1973 M4 28 GS MONTALTO 02:58:03.13 00:00:00.00 01:29:01
172 233 MORINI Gabriele M 1972 M4 29 ASD IMOLA BIKE 02:58:05.39 00:00:00.00 01:29:02
173 714 DELLA ROCCA Paolo M 1976 M4 30 AVEZZANO CYCLING TEAM 02:58:09.63 00:00:00.00 01:29:04
174 265 PEDICELLI Federico M 1986 M2 20 GS AVIS PRATOVECCHIO 02:58:12.63 00:00:00.00 01:29:06
175 827 PARIGI Simone M 1972 M4 31 ASD ZEROZERO TEAM 02:58:31.88 00:00:00.00 01:29:15
176 725 MIRRI Giovanni M 1991 M1 16 ASD BICIPEDIA 02:58:35.14 00:00:00.00 01:29:17
177 133 BICHI Guido M 1958 M7 2 CAVALLINO - SPECIALIZED 02:58:44.89 00:00:00.00 01:29:22
178 708 TOFFALORI Daniele M 1993 ELMT 26 TEAM TODESCO 02:58:54.64 00:00:00.00 01:29:27
179 838 ROTATORI Giovanni M 1975 M4 32 BIKE THERAPY ASD 02:59:04.39 00:00:00.00 01:29:32
180 345 GANDOLFO Marco M 1967 M5 24 ASD ROERO BIKERS 02:59:06.38 00:00:00.00 01:29:33

Classifiche Elaborate da SMS Sport


Pag. 3/10
GF CASTELLO DI MONTERIGGIONI
MONTERIGGIONI (SI) 17/10/2021
LUNGO (54 KM)

Pos Nr. Nominativo Atleta G Nato il Cat Pos Nome Squadra Tempo RTime Km/h
181 722 SILVERI Luca M 1977 M3 19 ASD GC CANINO 02:59:13.64 00:00:00.00 01:29:36
182 2155 VANNI Andrea M 1975 M4 33 NEW BIKE 2008 RACING TEAM 02:59:16.88 00:00:00.00 01:29:38
183 774 PARIGI Fabio M 1980 M3 20 GS MONTEMARCIANO 03:00:12.62 00:00:00.00 01:30:06
184 775 LIVI Giacomo M 1980 M3 21 GS MONTEMARCIANO 03:00:13.14 00:00:00.00 01:30:06
185 193 MAIUOLO Alessandro M 1981 M3 22 LISSONE MTB ASD 03:00:17.63 00:00:00.00 01:30:08
186 807 SIMI Alessandro M 1981 M3 23 CICLO TEAM SAN GINESE 03:00:29.88 00:00:00.00 01:30:14
187 138 CHIARINI Francesco M 1978 M3 24 GSC CASENTINESE 03:00:36.88 00:00:00.00 01:30:18
188 2290 BRUNETTI Giovanni M 1965 M6 16 BARACCA LUGO MTB 03:00:45.88 00:00:00.00 01:30:22
189 804 PASUTTO Alberto M 1993 ELMT 27 ASD GC EMIC 03:01:00.87 00:00:00.00 01:30:30
190 793 SPINELLI Alessio M 1985 M2 21 ASD CICLISSIMO BIKE TEAM 03:01:05.88 00:00:00.00 01:30:32
191 2072 CHIARAMONTI Simone M 1972 M4 34 TEAM GASTONE NENCINI PRATO 03:01:17.63 00:00:00.00 01:30:38
192 340 LAMPAZZI Tullio M 1982 M2 22 ASD PROVIS BIKE 03:01:25.88 00:00:00.00 01:30:42
193 778 LEPORE Enrico M 1964 M6 17 FIRENZE FREE RIDE ASD 03:01:35.88 00:00:00.00 01:30:47
194 404 PONTI Alberto M 1972 M4 35 TEAM TODESCO 03:01:41.62 00:00:00.00 01:30:50
195 2006 VIERI Simone M 1994 ELMT 28 TEAM BIKE GIPPO COLLE DI VAL D'ELSA 03:01:44.63 00:00:00.00 01:30:52
196 759 GIOVANNELLI Iacopo M 1985 M2 23 TUTTO BIKE TEAM 03:01:47.38 00:00:00.00 01:30:53
197 2227 TACCINI Andrea M 1966 M6 18 CICLI BRANDI ELBA TEAM 03:01:49.12 00:00:00.00 01:30:54
198 844 CECCHINI Marco M 1975 M4 36 POLISPORTIVA SANGIULIANESE 03:01:51.39 00:00:00.00 01:30:55
199 416 GAMBELLA David M 1970 M5 25 VEN MTB 03:02:04.63 00:00:00.00 01:31:02
200 756 CONTICINI Stefano M 1971 M5 26 TUTTO BIKE TEAM 03:02:07.88 00:00:00.00 01:31:03
201 2223 MENCARELLI Luca M 1972 M4 37 ASD LARIS BIKE 03:02:13.38 00:00:00.00 01:31:06
202 130 BARTOLOZZI Marcello M 1954 M8 1 CICLI TADDEI 03:02:27.87 00:00:00.00 01:31:13
203 137 CHERUBINI Lucio M 1957 M7 3 ASD POLISPORTIVA INDICATORE TEAM SPECIALIZED 03:02:36.38 00:00:00.00 01:31:18
204 158 MUGNAINI Michele M 1985 M2 24 ASD SCATENATI VAL DI PESA 03:02:36.88 00:00:00.00 01:31:18
205 220 REGOLI Andrea M 1966 M6 19 TEAM BIKE PIONIERI 03:02:38.62 00:00:00.00 01:31:19
206 89 PENNONE Stefano M 1968 M5 27 ASD MTBIKE ARGENTARIO 03:02:44.38 00:00:00.00 01:31:22
207 334 CANNIZZARO Riccardo M 1975 M4 38 SUPREME CYCLING TEAM 03:02:46.88 00:00:00.00 01:31:23
208 346 MIGLIASSO Enrico M 1979 M3 25 ASD ROERO BIKERS 03:03:06.62 00:00:00.00 01:31:33
209 430 CARBONI Claudio M 1981 M3 26 QUELLI CHE LO SPORT PIEDILUCO ASD 03:03:17.62 00:00:00.00 01:31:38
210 395 BETTARINI Stefano M 1975 M4 39 LE SORELLE ASD 03:03:21.63 00:00:00.00 01:31:40
211 831 RIVA Mirco M 1972 M4 40 TEAM TODESCO 03:03:24.88 00:00:00.00 01:31:42
212 840 FRENI Gianmarco M 1997 ELMT 29 VIVI DON BOSCO ASD 03:03:25.38 00:00:00.00 01:31:42
213 40 LIPPI Cristiana F 1972 DE 3 ASD CICLISSIMO BIKE TEAM 03:03:35.38 00:00:00.00 01:31:47
214 199 MANDELLI Chiara F 1972 W2 1 TEAM SPACEBIKES 03:03:38.12 00:00:00.00 01:31:49
215 216 PASINETTI Giovanni M 1970 M5 28 ASD MTB SUISIO 03:03:46.87 00:00:00.00 01:31:53
216 2056 SARDI Maris M 1970 M5 29 VETTORIBIKE ASD 03:03:52.13 00:00:00.00 01:31:56
217 737 DALLIO Riccardo M 1995 ELMT 30 ASD PELLEGRIN CYCLING TEAM 03:03:55.13 00:00:00.00 01:31:57
218 776 MONNECCHI Giulio M 1991 M1 17 ASD SAM ENDURO TEAM 03:04:18.82 00:00:00.00 01:32:09
219 465 ANCARANI Daniele M 1988 M1 18 TRIAL BIKE LUGO 03:04:58.87 00:00:00.00 01:32:29
220 243 MARIANI Alessio M 1992 ELMT 31 ASD BIKE SHOCK TEAM 03:05:10.88 00:00:00.00 01:32:35
221 2091 SCOLI Alessio M 1996 ELMT 32 TEAM GIOVANNELLI 03:05:15.62 00:00:00.00 01:32:37
222 832 ZANETTI Mauro M 1972 M4 41 TEAM TODESCO 03:05:23.12 00:00:00.00 01:32:41
223 108 LAERA Paolo M 1961 M7 4 CICLISMO TERONTOLA 03:05:38.37 00:00:00.00 01:32:49
224 898 PISTELLA Antonio M 1967 M5 30 ASD LARIS BIKE 03:05:48.12 00:00:00.00 01:32:54
225 767 BRANCONI Mirko M 1985 M2 25 ASD SAM ENDURO TEAM 03:05:52.38 00:00:00.00 01:32:56
226 2141 STEFANELLI Daniela F 1977 W2 2 TEAM CINGOLANI 03:06:06.87 00:00:00.00 01:33:03
227 2041 MONACI Andrea M 1971 M5 31 CICLISTICA VALDARBIA 03:06:07.12 00:00:00.00 01:33:03
228 697 PLATANIA Paolo M 1968 M5 32 SENZAFRENI MTB CLUB 03:06:07.87 00:00:00.00 01:33:03
229 719 PARISI Gian piero M 1965 M6 20 ASD SCATENATI VAL DI PESA 03:06:13.87 00:00:00.00 01:33:06
230 70 OLMI Leonardo M 1964 M6 21 CICLI TADDEI 03:06:42.37 00:00:00.00 01:33:21
231 238 MONTEMURRO Giovanni alessio M 1987 M1 19 TEAM SPACEBIKES 03:06:47.86 00:00:00.00 01:33:23
232 788 ANNUNZIATA Francesco M 1989 M1 20 SC ELBA OVEST 03:06:54.37 00:00:00.00 01:33:27
233 432 SANTINI Roberto M 1976 M4 42 CASSINIS CYCLING TEAM 03:07:06.87 00:00:00.00 01:33:33
234 97 MONTICONE Marco M 1974 M4 43 TEAM BIKE PIONIERI 03:07:10.87 00:00:00.00 01:33:35
235 2061 CENNI Andrea M 1967 M5 33 TUTTO BIKE TEAM 03:07:11.62 00:00:00.00 01:33:35
236 648 CANCIAN Giuliano M 1966 M6 22 ZERO 5 BIKE TEAM 03:07:13.12 00:00:00.00 01:33:36
237 858 MONTAGLIANI Aurelio M 1971 M5 34 CC APPENNINICO 1907 03:07:28.11 00:00:00.00 01:33:44
238 2052 OCCHIOLINI Ivan M 1971 M5 35 GS AVIS PRATOVECCHIO 03:07:42.12 00:00:00.00 01:33:51
239 721 SESTER Luca M 1966 M6 23 TEAM TODESCO 03:07:46.61 00:00:00.00 01:33:53
240 2159 LAZZERINI Jacopo M 1993 ELMT 33 ASD MTB CLUB CECINA 03:07:48.86 00:00:00.00 01:33:54

Classifiche Elaborate da SMS Sport


Pag. 4/10
GF CASTELLO DI MONTERIGGIONI
MONTERIGGIONI (SI) 17/10/2021
LUNGO (54 KM)

Pos Nr. Nominativo Atleta G Nato il Cat Pos Nome Squadra Tempo RTime Km/h
241 2362 GELLI Andrea M 1966 M6 24 AVIS VERAG PRATO EST 03:07:53.37 00:00:00.00 01:33:56
242 2268 AVELLA Simone M 1978 M3 27 AVIS VERAG PRATO EST 03:07:54.62 00:00:00.00 01:33:57
243 107 BULLI Alessio M 1987 M1 21 CLIMB BIKE TEAM 03:08:08.86 00:00:00.00 01:34:04
244 215 BOLIS Paolo M 1998 ELMT 34 ASD MTB SUISIO 03:08:20.12 00:00:00.00 01:34:10
245 123 BONATO Gianluca M 1966 M6 25 TEAM TODESCO 03:08:44.37 00:00:00.00 01:34:22
246 34 PADIGLIONI Federico M 1979 OPEN 25 PEDALE LEYNICESE ASD 03:08:55.11 00:00:00.00 01:34:27
247 2588 PECORINI Andrea M 1980 CT 1 INDIVIDUALE 03:08:58.11 00:00:00.00 01:34:29
248 621 GIUBBOLINI Mirko M 1986 M2 26 ASD ZEROZERO TEAM 03:09:11.12 00:00:00.00 01:34:35
249 161 PARRELLA Vincenzo M 1961 M7 5 SC VILLAFRANCA 03:09:17.61 00:00:00.00 01:34:38
250 185 INDELICATO Mario M 1963 M6 26 BICI CAMOGLI GOLFO PARADISO 03:09:21.37 00:00:00.00 01:34:40
251 653 MIODINI Filippo maria M 1992 ELMT 35 TEAM MIODINI BIKE 03:09:25.36 00:00:00.00 01:34:42
252 534 MENCARELLI Roberto M 1979 M3 28 ASD LARIS BIKE 03:09:27.61 00:00:00.00 01:34:43
253 171 SIRIZZOTTI Andrea M 1989 M1 22 LIVORNO TEAM BIKE ASD 03:09:50.12 00:00:00.00 01:34:55
254 437 ANTONIOLI Edoardo M 1994 ELMT 36 ASD TEAM BIKE VALCONCA 03:09:53.86 00:00:00.00 01:34:56
255 213 BONETTA Gianpietro M 1961 M7 6 ASD MTB SUISIO 03:09:56.36 00:00:00.00 01:34:58
256 661 RAGOZZINO Paolo M 1987 M1 23 LA BOTTEGA CASINALBO 03:10:16.86 00:00:00.00 01:35:08
257 2000 LANDI Roberto M 1982 M2 27 GS MONTALTO 03:10:19.87 00:00:00.00 01:35:09
258 227 PIANTINI Angiolino M 1962 M6 27 ASD BIKING RACING TEAM 03:10:21.62 00:00:00.00 01:35:10
259 720 CARLETTI Davide M 1985 M2 28 AVIS BIKE CINGOLI 03:10:24.86 00:00:00.00 01:35:12
260 2283 GENNARI Gabriele M 1963 M6 28 MASTER TEAM 03:10:41.12 00:00:00.00 01:35:20
261 2230 FANTELLI Silvio M 1971 M5 36 LIVORNO TEAM BIKE ASD 03:10:48.81 00:00:00.00 01:35:24
262 604 PARIS Franco M 1990 M1 24 FUNCTIONAL FIT 03:10:51.61 00:00:00.00 01:35:25
263 122 BARUFFALDI Paolo M 1974 M4 44 TEAM TODESCO 03:11:04.36 00:00:00.00 01:35:32
264 2040 GABELLINI Loris M 1966 M6 29 ASD FRECCE ROSSE RIMINI 03:11:16.86 00:00:00.00 01:35:38
265 627 MENNILLI Lorenzo M 1980 M3 29 FUNCTIONAL FIT 03:11:26.11 00:00:00.00 01:35:43
266 2016 FABBRI Mauro M 1967 M5 37 TEAM BIKE COCIF.COM ASD 03:11:41.61 00:00:00.00 01:35:50
267 861 VANNINI Alessandro M 1965 M6 30 TAFANI BIKE ASD 03:12:11.61 00:00:00.00 01:36:05
268 77 BUCCICHINI Massimo M 1968 M5 38 CAVALLINO - SPECIALIZED 03:12:14.11 00:00:00.00 01:36:07
269 587 SIMONETTI Francesco M 1973 M4 45 SVALVOLATI IN MTB 03:12:16.10 00:00:00.00 01:36:08
270 522 CAPPELLA Salvatore M 1990 M1 25 BICISTORE CYCLING TEAM 03:12:40.61 00:00:00.00 01:36:20
271 2111 SANTI Valerio M 1985 M2 29 MONKEY RACING TEAM 03:12:46.60 00:00:00.00 01:36:23
272 695 LANDI Alessio M 1992 ELMT 37 CICLISTICA VIACCIA 03:13:04.36 00:00:00.00 01:36:32
273 747 DE PIN Ezio M 1968 M5 39 ASD BIBIONE CYCLING TEAM 03:13:10.11 00:00:00.00 01:36:35
274 2224 SAVIO Francesco M 1982 M2 30 ASD MTB CLUB CECINA 03:13:11.86 00:00:00.00 01:36:35
275 269 COCCOLINI Claudio M 1960 M7 7 ASD MTB CLUB CECINA 03:13:21.86 00:00:00.00 01:36:40
276 106 BIANCO Marco M 1988 M1 26 CLIMB BIKE TEAM 03:13:31.61 00:00:00.00 01:36:45
277 2248 SERANGELI Massimo M 1972 M4 46 CICLI TADDEI 03:13:40.36 00:00:00.00 01:36:50
278 825 RIVITUSO Fabio M 1987 M1 27 CICLISTICA VALDARBIA 03:13:52.86 00:00:00.00 01:36:56
279 2053 PECCHIA Riccardo M 1971 M5 40 VO2 CYCLING TEAM 03:14:03.60 00:00:00.00 01:37:01
280 751 ROSSELLI Alberto M 1974 M4 47 LIVORNO TEAM BIKE ASD 03:14:20.36 00:00:00.00 01:37:10
281 124 PELUCCO Claudio M 1967 M5 41 TEAM TODESCO 03:14:27.11 00:00:00.00 01:37:13
282 72 FALOMI Massimo M 1972 M4 48 CICLO CLUB QUOTA MILLE 03:14:35.10 00:00:00.00 01:37:17
283 639 COPPI Andrea M 1978 M3 30 ASD MTB SANTA FIORA 03:14:39.61 00:00:00.00 01:37:19
284 2267 AMBROSETTI Marco M 1965 M6 31 AVIS VERAG PRATO EST 03:14:46.36 00:00:00.00 01:37:23
285 2273 MENCARONI Alessandro M 1967 M5 42 AVIS VERAG PRATO EST 03:14:47.11 00:00:00.00 01:37:23
286 329 CHIURULLI Gian claudio M 1974 M4 49 ASD MA.AN.RT 03:14:51.90 00:00:00.00 01:37:25
287 173 TATINI Gabriele M 1956 M8 2 ASD CICLISSIMO BIKE TEAM 03:15:08.61 00:00:00.00 01:37:34
288 699 NERI Tiziano M 1989 M1 28 INDIVIDUALE 03:15:19.11 00:00:00.00 01:37:39
289 705 DEL DEBBIO Andrea M 1974 M4 50 TEAM MARCHISIO BICI 03:15:21.11 00:00:00.00 01:37:40
290 679 CECCAREL Mattia M 1991 M1 29 TEAM MARCHISIO BICI 03:15:48.61 00:00:00.00 01:37:54
291 120 BARTOLINI Valeria F 1973 W2 3 BOMBARDIER SQUADRA CORSE ASD 03:15:54.10 00:00:00.00 01:37:57
292 647 PANICHI Fabio M 1968 M5 43 GS CICLI GAUDENZI 03:16:03.85 00:00:00.00 01:38:01
293 742 CINI Francesco M 1979 M3 31 POLISPORTIVA SANGIULIANESE 03:16:10.85 00:00:00.00 01:38:05
294 2151 ROSSETTI Moreno M 1960 M7 8 NEW BIKE 2008 RACING TEAM 03:16:16.11 00:00:00.00 01:38:08
295 610 QUIRINO Placido M 1977 M3 32 RDR CYCLING TEAM ASD 03:16:44.35 00:00:00.00 01:38:22
296 2065 RIALTI Alessandro M 1970 M5 44 GS AVIS PRATOVECCHIO 03:16:51.10 00:00:00.00 01:38:25
297 491 GHERMANDI Devid M 1976 M4 51 LA BOTTEGA CASINALBO 03:16:54.35 00:00:00.00 01:38:27
298 642 FERRARI Stefano M 1993 ELMT 38 BHS TEAM ASD 03:17:16.36 00:00:00.00 01:38:38
299 347 BONIFACIO Ivano andrea M 1971 M5 45 MANGO BIKE 03:17:18.11 00:00:00.00 01:38:39
300 779 CONCOLINO Antonio M 1975 M4 52 POLISPORTIVA SANGIULIANESE 03:17:31.10 00:00:00.00 01:38:45

Classifiche Elaborate da SMS Sport


Pag. 5/10
GF CASTELLO DI MONTERIGGIONI
MONTERIGGIONI (SI) 17/10/2021
LUNGO (54 KM)

Pos Nr. Nominativo Atleta G Nato il Cat Pos Nome Squadra Tempo RTime Km/h
301 222 BIANCHI Giacomo M 1970 M5 46 GS ONTRAINO 03:17:43.10 00:00:00.00 01:38:51
302 591 GARGIULO Pasquale M 1972 M4 53 RDR CYCLING TEAM ASD 03:17:44.10 00:00:00.00 01:38:52
303 402 DI CAPUA Lorenzo M 1975 M4 54 CICLOPICENTIA ASD 03:17:59.35 00:00:00.00 01:38:59
304 157 MISTRETTA Beatrice F 1966 W3 1 NEW BIKE 2008 RACING TEAM 03:18:02.35 00:00:00.00 01:39:01
305 242 MARIANI Fabrizio M 1981 M3 33 ASD BIKE SHOCK TEAM 03:18:09.85 00:00:00.00 01:39:04
306 2038 CASADEI Marco M 1971 M5 47 ASD FRECCE ROSSE RIMINI 03:18:17.60 00:00:00.00 01:39:08
307 493 BRUNELLI Nicola M 1976 M4 55 ASD SID STRENZ I DENT SPORT TEAM 03:18:21.85 00:00:00.00 01:39:10
308 713 MUGNAINI Mirko M 1978 M3 34 ASD SCATENATI VAL DI PESA 03:18:28.85 00:00:00.00 01:39:14
309 571 BONIFAZI Fulvio M 1978 M3 35 LIVORNO TEAM BIKE ASD 03:18:50.10 00:00:00.00 01:39:25
310 330 SILVI Fabrizio M 1968 M5 48 ASD MA.AN.RT 03:19:05.36 00:00:00.00 01:39:32
311 781 FABBRI Marco M 1989 M1 30 GS RAMINI 03:19:06.35 00:00:00.00 01:39:33
312 575 MORETTI Adriano M 1974 M4 56 SVALVOLATI IN MTB 03:19:09.10 00:00:00.00 01:39:34
313 409 MOLINARI Marco M 1978 M3 36 WET LIFE RIDOTTIALLOSSO 03:19:26.35 00:00:00.00 01:39:43
314 194 SANTORO Francesco M 1965 M6 32 LISSONE MTB ASD 03:19:32.59 00:00:00.00 01:39:46
315 782 ERCOLANI Roberto M 1964 M6 33 CICLI BRANDI ELBA TEAM 03:19:33.61 00:00:00.00 01:39:46
316 204 CRISTELLON Mattia M 1995 ELMT 39 TEAM TODESCO 03:19:54.85 00:00:00.00 01:39:57
317 662 PLAITANO Alessandro M 1984 M2 31 ASD EXTREME BIKE SALERNO 03:20:00.35 00:00:00.00 01:40:00
318 854 GIANNINI Gian piero M 1961 M7 9 ASD GS POPPI BP MOTION 03:20:11.09 00:00:00.00 01:40:05
319 235 ZOIA Mirco M 1978 M3 37 ASD MAGICA BIKE SAN DONA' 03:20:15.35 00:00:00.00 01:40:07
320 322 SOVERA Alessio M 1974 M4 57 ASD IMOLA BIKE 03:20:24.60 00:00:00.00 01:40:12
321 652 BOCCHI Simone M 1984 M2 32 MOTO CLUB PIGARELLA 03:20:25.35 00:00:00.00 01:40:12
322 689 BACCHI Federico M 1979 M3 38 SVALVOLATI IN MTB 03:20:52.86 00:00:00.00 01:40:26
323 308 ANDREANI Matteo M 1988 M1 31 SC VILLAFRANCA 03:21:06.60 00:00:00.00 01:40:33
324 2066 GALLORINI Marco M 1981 M3 39 ASD POLISPORTIVA INDICATORE TEAM SPECIALIZED 03:21:08.85 00:00:00.00 01:40:34
325 270 GIORGI Roberto M 1960 M7 10 ASD MTB CLUB CECINA 03:21:12.64 00:00:00.00 01:40:36
326 669 MARIANI Roberto M 1987 M1 32 MTB SCANNO 03:21:18.10 00:00:00.00 01:40:39
327 895 VITTORI Mauro M 1966 M6 34 ASD BIKE GARAGE RACING TEAM 03:21:37.10 00:00:00.00 01:40:48
328 102 BUSOLIN Federico M 1980 M3 40 PACINI FACTORY TEAM 03:21:43.06 00:00:00.00 01:40:51
329 175 VERNACCINI Chiara F 1973 W2 4 LIVORNO TEAM BIKE ASD 03:22:00.34 00:00:00.00 01:41:00
330 828 GULLI' Paolo M 1984 M2 33 TEAM GIOVANNELLI 03:22:06.60 00:00:00.00 01:41:03
331 830 BONETTI Emilio M 1981 M3 41 TEAM TODESCO 03:22:17.84 00:00:00.00 01:41:08
332 2078 MASETTI Marco M 1983 M2 34 LEOGYM SSD ARL 03:22:48.09 00:00:00.00 01:41:24
333 715 SORGI Luigi M 1964 M6 35 AVEZZANO CYCLING TEAM 03:23:16.34 00:00:00.00 01:41:38
334 731 MELE Alessio M 1995 ELMT 40 PACINI FACTORY TEAM 03:23:24.35 00:00:00.00 01:41:42
335 808 MASSONI Andrea M 1982 M2 35 CICLO TEAM SAN GINESE 03:23:27.34 00:00:00.00 01:41:43
336 824 SABATINO Roberto M 1986 M2 36 NEW BIKE 2008 RACING TEAM 03:23:50.84 00:00:00.00 01:41:55
337 654 SACCHETTI Alessandro M 1971 M5 49 GS CICLI GAUDENZI 03:24:01.85 00:00:00.00 01:42:00
338 734 PRUNAI Nicola M 1968 M5 50 LIVORNO TEAM BIKE ASD 03:24:07.59 00:00:00.00 01:42:03
339 2266 AGATI Massimiliano M 1973 M4 58 AVIS VERAG PRATO EST 03:24:14.59 00:00:00.00 01:42:07
340 777 FIRENZUOLI Fabio M 1971 M5 51 SVALVOLATI IN MTB 03:24:21.10 00:00:00.00 01:42:10
341 784 POLVERARI Paolo M 1974 M4 59 TEAM CINGOLANI 03:24:33.10 00:00:00.00 01:42:16
342 78 PAPI Laura F 1969 W3 2 CAVALLINO - SPECIALIZED 03:25:04.09 00:00:00.00 01:42:32
343 766 BICCHI Iacopo M 1989 M1 33 ASD SAM ENDURO TEAM 03:25:25.09 00:00:00.00 01:42:42
344 2233 PERULLO Daniele M 1966 M6 36 LIVORNO TEAM BIKE ASD 03:25:40.60 00:00:00.00 01:42:50
345 127 FONTANELLI Annalisa F 1982 W1 2 ASD CICLOSPORT POGGIBONSI 03:26:04.87 00:00:00.00 01:43:02
346 339 ROSINA Mirko M 1973 M4 60 TEAM ESTEBIKE ZORDAN 03:26:16.59 00:00:00.00 01:43:08
347 750 GAIBA Michele M 1974 M4 61 ASD BICI CLUB MONTE SAN PIETRO 03:26:21.10 00:00:00.00 01:43:10
348 833 GHIGNONI Pietro M 1995 ELMT 41 GS CICLI EFFE EFFE 03:26:27.83 00:00:00.00 01:43:13
349 2231 GIUSTI Donatello M 1972 M4 62 LIVORNO TEAM BIKE ASD 03:26:41.84 00:00:00.00 01:43:20
350 806 BIFFOLI Alessandro M 1965 M6 37 ACD BICISPORTEAM FIRENZE 03:26:45.84 00:00:00.00 01:43:22
351 582 GIORGETTI Andrea M 1972 M4 63 SVALVOLATI IN MTB 03:26:59.08 00:00:00.00 01:43:29
352 820 PETRELLI Giacomo M 1981 M3 42 ASD SACE 03:27:16.83 00:00:00.00 01:43:38
353 871 CASTIONI Francesco M 1968 M5 52 TEAM TODESCO 03:27:23.59 00:00:00.00 01:43:41
354 753 BURGIO Giovanni M 1988 M1 34 LISSONE MTB ASD 03:27:27.58 00:00:00.00 01:43:43
355 225 GILLI Mirco M 1977 M3 43 TEAM VERNIABIKE TEAM ASD 03:27:38.33 00:00:00.00 01:43:49
356 882 MEUCCI Luciano M 1964 M6 38 POL. TAVARNELLE 03:27:50.59 00:00:00.00 01:43:55
357 406 PEVERE Oliviero M 1968 M5 53 ASD POLISPORTIVA FORTEZZALAND 03:27:52.84 00:00:00.00 01:43:56
358 244 RENZONI Francesco M 1974 M4 64 DONKEY BIKE CLUB SINALUNGA 03:27:56.12 00:00:00.00 01:43:58
359 740 TARGETTI Marco M 1977 M3 44 LE SORELLE ASD 03:28:02.59 00:00:00.00 01:44:01
360 733 CAMAIANI Mirco M 1975 M4 65 PACINI FACTORY TEAM 03:28:13.34 00:00:00.00 01:44:06

Classifiche Elaborate da SMS Sport


Pag. 6/10
GF CASTELLO DI MONTERIGGIONI
MONTERIGGIONI (SI) 17/10/2021
LUNGO (54 KM)

Pos Nr. Nominativo Atleta G Nato il Cat Pos Nome Squadra Tempo RTime Km/h
361 857 MANGIAFERRO Marco M 1974 M4 66 ARTEMISIA APD 03:28:37.83 00:00:00.00 01:44:18
362 385 TESSANDORI Massimo M 1974 M4 67 TORRETTA BIKE 03:28:44.83 00:00:00.00 01:44:22
363 524 BELLONI Lorenzo M 1976 M4 68 US JUVENTUS LARI 03:29:03.84 00:00:00.00 01:44:31
364 2407 BALDAZZI Filippo M 2004 JUN 1 SC ALFREDO ORIANI 03:29:11.09 00:00:00.00 01:44:35
365 262 ABDALLAH Ahmed M 1987 M1 35 TERRE ETRUSCO-LABRONICHE 03:29:35.33 00:00:00.00 01:44:47
366 692 IPPOLITO Paolo M 1967 M5 54 ASD CICLOSPORT POGGIBONSI 03:29:47.33 00:00:00.00 01:44:53
367 268 ALBIANI Alessandro M 1985 M2 37 ASD MTB CLUB CECINA 03:30:09.84 00:00:00.00 01:45:04
368 789 BILLI Marco M 1969 M5 55 ARRAMPIBIKE VERSILIA OFFROAD 03:30:13.33 00:00:00.00 01:45:06
369 2200 CIACCI Roberto M 1966 M6 39 DONKEY BIKE CLUB SINALUNGA 03:30:15.08 00:00:00.00 01:45:07
370 738 GRISOLINI Simone M 1982 M2 38 TEAM TREDICI DOUBLE CAM ASD 03:30:24.83 00:00:00.00 01:45:12
371 2249 PROFETI Luca M 1962 M6 40 CICLI TADDEI 03:31:40.08 00:00:00.00 01:45:50
372 707 CAVINA Matteo M 1977 M3 45 POL. DIL. TE' BOTA TEAM 03:31:48.84 00:00:00.00 01:45:54
373 93 PERUGINI Romina F 1984 W1 3 BIKE THERAPY ASD 03:31:55.08 00:00:00.00 01:45:57
374 676 PINSUTI Alessio M 1995 ELMT 42 GS ONTRAINO 03:32:04.33 00:00:00.00 01:46:02
375 2168 PONSARD Luca M 1970 M5 56 ASD MTB CLUB CECINA 03:32:11.08 00:00:00.00 01:46:05
376 852 DI CINTIO Giampiero M 1963 M6 41 ITALIA NUOVA BORGO PANIGALE 03:32:16.82 00:00:00.00 01:46:08
377 466 RAGAZZINI Elena F 1982 W1 4 VELO CLUB GARDA 03:32:20.33 00:00:00.00 01:46:10
378 2562 DEL CARRATORE Filippo M 1980 CT 2 INDIVIDUALE 03:32:21.08 00:00:00.00 01:46:10
379 2576 MARTINI Giancarlo M 1985 CT 3 INDIVIDUALE 03:32:43.33 00:00:00.00 01:46:21
380 813 CASTIGLIA Rosolino M 1983 M2 39 GC VAL DI MERSE 03:32:51.83 00:00:00.00 01:46:25
381 2269 BARNI Marco M 1967 M5 57 AVIS VERAG PRATO EST 03:32:59.33 00:00:00.00 01:46:29
382 2363 BRESCHI Alessandro M 1966 M6 42 AVIS VERAG PRATO EST 03:33:01.08 00:00:00.00 01:46:30
383 894 FERRARI Paola F 1963 W3 3 MTB TURBOLENTI 03:33:10.58 00:00:00.00 01:46:35
384 2029 MARAGLIULO Carlo M 1984 M2 40 CICLI TADDEI 03:33:19.33 00:00:00.00 01:46:39
385 872 RIBALDI Stefano M 1971 M5 58 POLISPORTIVA SANGIULIANESE 03:33:33.08 00:00:00.00 01:46:46
386 363 BATTAGLIA Luca M 1975 M4 69 SC VILLAFRANCA 03:33:36.59 00:00:00.00 01:46:48
387 2030 BALDI Gianni M 1972 M4 70 UISP COMIT. TERR.LE RAVENNA-LUGO 03:33:40.58 00:00:00.00 01:46:50
388 839 PAPINI Giovanni M 1981 M3 46 TEAM GIOVANNELLI 03:33:45.32 00:00:00.00 01:46:52
389 645 COPPINI Luca M 1960 M7 11 ASD TEAM MTB PRATO 03:33:47.33 00:00:00.00 01:46:53
390 165 PIERONI Ilaria F 1976 W2 5 TEAM BIKE PIONIERI 03:33:48.08 00:00:00.00 01:46:54
391 2094 BATISTINI Paolo M 1979 M3 47 DONKEY BIKE CLUB SINALUNGA 03:33:53.57 00:00:00.00 01:46:56
392 678 VERZE Vieri M 1978 M3 48 FIRENZE FREERIDE 03:34:00.58 00:00:00.00 01:47:00
393 2583 PRESTINI Massimiliano M 1977 CT 4 INDIVIDUALE 03:34:25.57 00:00:00.00 01:47:12
394 822 CANTUCCI Tiberio M 1964 M6 43 TUSCANY NATURAL TRAIL LEVANE 03:34:25.59 00:00:00.00 01:47:12
395 354 ZAZZERI Stefano M 1968 M5 59 PENTASPORT VALDELSA 03:34:27.08 00:00:00.00 01:47:13
396 814 SEMPLICI Roberto M 1971 M5 60 GC VAL DI MERSE 03:34:38.58 00:00:00.00 01:47:19
397 2577 RIGHI Francesco M 1988 CT 5 INDIVIDUALE 03:34:40.08 00:00:00.00 01:47:20
398 601 PINESSI Marco M 1963 M6 44 LISSONE MTB ASD 03:34:53.57 00:00:00.00 01:47:26
399 414 SALA Mattia M 1994 ELMT 43 POLISPORTIVA BERNATE 03:35:00.58 00:00:00.00 01:47:30
400 612 MONTANARI Fabrizio M 1978 M3 49 TRIAL BIKE LUGO 03:35:24.32 00:00:00.00 01:47:42
401 523 BERTINI Walter M 1979 M3 50 GS ARCI PERIGNANO 03:35:30.68 00:00:00.00 01:47:45
402 438 BIANCHI Andrea M 1970 M5 61 ASD MONKEY SURF RICCIONE 03:35:48.33 00:00:00.00 01:47:54
403 315 MARTELLI Andrea M 1983 M2 41 ASD WAYPOINT MTB FILOTTRANO 03:36:37.83 00:00:00.00 01:48:18
404 819 VESIN GABRI Enrico claudio M 1968 M5 62 ASD GC CAPODARCO 03:36:46.08 00:00:00.00 01:48:23
405 818 CAMARRI Enrico M 1977 M3 51 ASD GC CAPODARCO 03:36:52.32 00:00:00.00 01:48:26
406 2092 FANTOZZI Marco M 1962 M6 45 GS LA MANIA DELLE DUE RUOTE 03:37:25.83 00:00:00.00 01:48:42
407 786 TRALDI Erik M 1988 M1 36 TEAM SCULAZZO ITALIA 03:37:56.83 00:00:00.00 01:48:58
408 867 MANICARDI Fabiano M 1989 M1 37 TEAM SCULAZZO ITALIA 03:37:57.08 00:00:00.00 01:48:58
409 897 CANTARELLI Arik M 1978 M3 52 TEAM SCULAZZO ITALIA 03:37:58.57 00:00:00.00 01:48:59
410 787 TRALDI Marco M 1967 M5 63 TEAM SCULAZZO ITALIA 03:37:58.82 00:00:00.00 01:48:59
411 841 GIOVANNONI Matteo M 1987 M1 38 ASD FREE BIKE CASALGUIDI 03:38:05.08 00:00:00.00 01:49:02
412 526 SINTINI Stefano M 1960 M7 12 PEDAL CLUB OFFICINA A PEDALI ASD 03:38:11.57 00:00:00.00 01:49:05
413 672 RAVAIOLI Lorenzo M 1967 M5 64 TEAM PASSION FAENTINA 03:38:12.57 00:00:00.00 01:49:06
414 771 PEPI Riccardo M 1995 ELMT 44 ASD SAM ENDURO TEAM 03:38:30.57 00:00:00.00 01:49:15
415 537 BERTONI Vittorio M 1967 M5 65 MTB GS CIGNONE 03:38:50.57 00:00:00.00 01:49:25
416 856 LIVI Massimo M 1958 M7 13 ARTEMISIA APD 03:39:44.33 00:00:00.00 01:49:52
417 888 MORI Giancarlo M 1985 M2 42 POL. TAVARNELLE 03:40:08.07 00:00:00.00 01:50:04
418 800 PERUZZI Riccardo M 1960 M7 14 ASD CICLISSIMO BIKE TEAM 03:40:22.81 00:00:00.00 01:50:11
419 328 CIANCHELLA Simona F 1974 W2 6 ASD MA.AN.RT 03:40:45.07 00:00:00.00 01:50:22
420 851 GHEZZANI Paolo M 1975 M4 71 ASD STAR BIKE 03:41:10.81 00:00:00.00 01:50:35

Classifiche Elaborate da SMS Sport


Pag. 7/10
GF CASTELLO DI MONTERIGGIONI
MONTERIGGIONI (SI) 17/10/2021
LUNGO (54 KM)

Pos Nr. Nominativo Atleta G Nato il Cat Pos Nome Squadra Tempo RTime Km/h
421 643 FIORINI Moreno M 1970 M5 66 MONTECALVI TRIAL 03:41:13.32 00:00:00.00 01:50:36
422 441 SANCHINI Oscar M 1970 M5 67 ASD MONKEY SURF RICCIONE 03:41:20.31 00:00:00.00 01:50:40
423 878 COZZA Raffaele M 1961 M7 15 CICLISTICA VIACCIA 03:41:21.31 00:00:00.00 01:50:40
424 2361 SOCCI Daniele M 1972 M4 72 LIVORNO TEAM BIKE ASD 03:41:32.31 00:00:00.00 01:50:46
425 821 PAGLIARINI Fabrizio M 1963 M6 46 ASD SACE 03:41:32.82 00:00:00.00 01:50:46
426 761 MALANDRA Giulio M 1962 M6 47 MAIELLA NUOTO GUARDAGRELE 03:41:41.81 00:00:00.00 01:50:50
427 492 NAVARRA Gian matteo M 1975 M4 73 ASD SID STRENZ I DENT SPORT TEAM 03:42:02.82 00:00:00.00 01:51:01
428 499 MAGNANI Chiara F 1973 W2 7 ASD SID STRENZ I DENT SPORT TEAM 03:42:03.07 00:00:00.00 01:51:01
429 2334 ZANONI Mauro M 1971 M5 68 TEAM TODESCO 03:42:12.32 00:00:00.00 01:51:06
430 896 PATTERLINI Antonio M 1965 M6 48 CICLISTICA GATTATICO GFM ASSOPLAST 03:42:29.31 00:00:00.00 01:51:14
431 765 BARI Enrico M 1968 M5 69 ASD SAM ENDURO TEAM 03:42:50.31 00:00:00.00 01:51:25
432 95 CERVINI Silvia F 1983 W1 5 CICLI BRANDI ELBA TEAM 03:43:43.82 00:00:00.00 01:51:51
433 2097 CIUOLI Valentina F 1979 W2 8 DONKEY BIKE CLUB SINALUNGA 03:43:44.07 00:00:00.00 01:51:52
434 2102 BIGOZZI Simone M 1974 M4 74 DONKEY BIKE CLUB SINALUNGA 03:43:52.32 00:00:00.00 01:51:56
435 556 PAPI Massimiliano M 1971 M5 70 AS ALL SPORTS 03:44:13.07 00:00:00.00 01:52:06
436 728 PACINI Fredy M 1961 M7 16 PACINI FACTORY TEAM 03:44:22.07 00:00:00.00 01:52:11
437 596 SANTARELLI Alessandro M 1978 M3 53 FUNCTIONAL FIT 03:44:34.31 00:00:00.00 01:52:17
438 2100 GORELLINI Mattia M 1995 ELMT 45 DONKEY BIKE CLUB SINALUNGA 03:44:34.32 00:00:00.00 01:52:17
439 455 CROCI Andrea M 1974 M4 75 BIKE RACING TEAM ASD 03:45:09.31 00:00:00.00 01:52:34
440 2573 CENNI Claudio M 1981 CT 6 SC ALFREDO ORIANI 03:45:17.81 00:00:00.00 01:52:38
441 846 PETTAZZONI Marco M 1985 M2 43 TEAM TREDICI DOUBLE CAM ASD 03:45:19.80 00:00:00.00 01:52:39
442 196 BELOTTI Fabio M 1969 M5 71 TEAM SPACEBIKES 03:45:23.81 00:00:00.00 01:52:41
443 2070 ILARDO Giovanni M 1963 M6 49 TEAM GASTONE NENCINI PRATO 03:45:32.81 00:00:00.00 01:52:46
444 459 MERLI Paolo M 1969 M5 72 BIKE RACING TEAM ASD 03:45:48.55 00:00:00.00 01:52:54
445 675 MAMBELLI Mattia M 1973 M4 76 TRIAL BIKE LUGO 03:46:02.06 00:00:00.00 01:53:01
446 420 AFFANNI Mauro M 1978 M3 54 GS CICLI LUCCHINI 03:46:12.31 00:00:00.00 01:53:06
447 843 PIETROBON Ugo M 1965 M6 50 ASD BIBIONE CYCLING TEAM 03:46:24.81 00:00:00.00 01:53:12
448 817 FORZIERI Massimiliano M 1969 M5 73 ASD SCATENATI VAL DI PESA 03:46:40.57 00:00:00.00 01:53:20
449 651 GUARDUCCI Andrea M 1967 M5 74 ASD SIMONE BIKE 03:47:04.31 00:00:00.00 01:53:32
450 799 TANTURLI Mauro M 1958 M7 17 ASD CICLISSIMO BIKE TEAM 03:47:16.55 00:00:00.00 01:53:38
451 563 PIATTELLINI Elena F 1991 W1 6 TEAM BIKE GIPPO COLLE DI VAL D'ELSA 03:47:18.05 00:00:00.00 01:53:39
452 2161 FILIPPI Persio M 1965 M6 51 ASD MTB CLUB CECINA 03:49:11.56 00:00:00.00 01:54:35
453 42 DICKY TRI Syahputra M 1989 OPEN 26 TEAM TODESCO 03:49:30.81 00:00:00.00 01:54:45
454 378 MENCHINI Andrea M 2001 ELMT 46 TORRETTA BIKE 03:49:32.56 00:00:00.00 01:54:46
455 865 HEAL Jonathan M 1977 M3 55 LA BOTTEGA CASINALBO 03:49:57.55 00:00:00.00 01:54:58
456 498 QUATTROCCHI Claudio M 1967 M5 75 ASD SID STRENZ I DENT SPORT TEAM 03:50:06.80 00:00:00.00 01:55:03
457 847 VERNI Matteo M 1981 M3 56 TEAM TREDICI BIKE 03:50:13.80 00:00:00.00 01:55:06
458 2406 VILLA Luca M 2004 JUN 2 SC ALFREDO ORIANI 03:51:44.55 00:00:00.00 01:55:52
459 2281 GUIDA Gianni M 1970 M5 76 ASD NEW DOWNHILL 03:52:07.56 00:00:00.00 01:56:03
460 717 SCHIAVINATO Paolo M 1973 M4 77 BIKE CLUB 2000 03:52:43.55 00:00:00.00 01:56:21
461 671 CAPPARUCCINI Luca M 1982 M2 44 ASD BIKERS ROCK N'ROAD 03:52:55.04 00:00:00.00 01:56:27
462 163 PEDANI Giuseppe luca M 1956 M8 3 CICLI TADDEI 03:52:59.30 00:00:00.00 01:56:29
463 2271 CIRMENA Giuseppe M 1969 M5 77 AVIS VERAG PRATO EST 03:53:24.79 00:00:00.00 01:56:42
464 634 DONATI Maurizio M 1959 M7 18 VELO CLUB SAN VINCENZO 03:53:32.05 00:00:00.00 01:56:46
465 809 MARAMOTTI Carlo M 1967 M5 78 TEAM SCULAZZO ITALIA 03:54:20.80 00:00:00.00 01:57:10
466 554 FIORANI Lucio M 1979 M3 57 LA BOTTEGA CASINALBO 03:54:45.54 00:00:00.00 01:57:22
467 314 BARBIERI Nicolo' M 1988 M1 40 CC CREMONESE ASD 03:54:45.80 00:00:00.00 01:57:22
468 877 BALLOTTA Loris M 1979 M3 58 LA BOTTEGA CASINALBO 03:54:45.80 00:00:00.00 01:57:22
469 412 TITTA Pierluigi M 1960 M7 19 POLISPORTIVA BERNATE 03:54:52.54 00:00:00.00 01:57:26
470 379 PERA Fabio M 1968 M5 79 TORRETTA BIKE 03:54:55.54 00:00:00.00 01:57:27
471 889 PALADINI Massimiliano M 1968 M5 80 COMITATO UISP PARMA 03:54:58.80 00:00:00.00 01:57:29
472 757 FALCIANI *** Claudio M 1959 M7 20 TUTTO BIKE TEAM 03:55:12.54 00:00:00.00 01:57:36
473 2364 MORETTO Gerardo M 1966 M6 52 AVIS VERAG PRATO EST 03:55:50.54 00:00:00.00 01:57:55
474 309 SAVINI Mirko M 1980 M3 59 MTB POMEZIA ASD 03:55:58.80 00:00:00.00 01:57:59
475 180 CARBONI Elisabetta F 1973 W2 9 VEE TIRE CO TEAM RACE 03:56:32.54 00:00:00.00 01:58:16
476 874 CANTINI Simone M 1982 M2 45 ASD MUGELLO TOSCANA BIKE 03:56:39.04 00:00:00.00 01:58:19
477 321 CARUSO Antonella F 1975 W2 10 ASD SAMBI TEAM 03:57:37.79 00:00:00.00 01:58:48
478 541 COSTA Sandro M 1958 M7 21 MTB SANTA MARINELLA CICLI MONTANINI 03:58:11.54 00:00:00.00 01:59:05
479 748 VEZZOSI Massimo M 1971 M5 81 TEAM SCULAZZO ITALIA 03:58:21.29 00:00:00.00 01:59:10
480 487 FRANCESCONI Stefano M 1967 M5 82 SPORTING VALSANTERNO APD 03:58:26.05 00:00:00.00 01:59:13

Classifiche Elaborate da SMS Sport


Pag. 8/10
GF CASTELLO DI MONTERIGGIONI
MONTERIGGIONI (SI) 17/10/2021
LUNGO (54 KM)

Pos Nr. Nominativo Atleta G Nato il Cat Pos Nome Squadra Tempo RTime Km/h
481 373 CASTELLI Massimiliano M 1975 M4 78 CRAL ENTI LOCALI SIENA 03:59:27.54 00:00:00.00 01:59:43
482 326 DURASTANTI Marco M 1966 M6 53 ASD MA.AN.RT 04:00:30.78 00:00:00.00 02:00:15
483 773 VELTRONI Giulio M 1985 M2 46 ASD SAM ENDURO TEAM 04:00:31.03 00:00:00.00 02:00:15
484 327 D'ELISO Annalisa F 1978 W2 11 ASD MA.AN.RT 04:00:31.28 00:00:00.00 02:00:15
485 516 GIULIANI Michele M 1993 ELMT 47 MTBSAVIGNO 04:00:58.54 00:00:00.00 02:00:29
486 512 MERLI Giorgio M 1993 ELMT 48 ASD ONLYOFF DUE RUOTE 04:01:00.28 00:00:00.00 02:00:30
487 837 PRUSSI Alessio M 1986 M2 47 TEAM SCOTT PASQUINI STELLA AZZURRA 04:01:40.53 00:00:00.00 02:00:50
488 401 IORIO Mauro M 1977 M3 60 CICLOPICENTIA ASD 04:02:00.03 00:00:00.00 02:01:00
489 415 TETTAMANZI Emilio M 1955 M8 4 TEAM SPACEBIKES 04:02:26.54 00:00:00.00 02:01:13
490 380 MARCHESE Matteo M 1988 M1 41 TORRETTA BIKE 04:02:28.78 00:00:00.00 02:01:14
491 603 SAMMASSIMO Diego M 1973 M4 79 FUNCTIONAL FIT 04:02:36.29 00:00:00.00 02:01:18
492 2064 GIANNINI Gianpaolo M 1963 M6 54 GS AVIS PRATOVECCHIO 04:02:36.78 00:00:00.00 02:01:18
493 2275 SIMONI Samuele M 1971 M5 83 AVIS VERAG PRATO EST 04:03:19.28 00:00:00.00 02:01:39
494 794 LILLI Salvatore M 1952 M8 5 ASD CICLISSIMO BIKE TEAM 04:03:33.29 00:00:00.00 02:01:46
495 472 CALBI Paola F 1966 W3 4 ALICE BIKE TEAM RACING 04:04:21.04 00:00:00.00 02:02:10
496 473 PERUZZI Loris M 1962 M6 55 ALICE BIKE TEAM RACING 04:04:21.79 00:00:00.00 02:02:10
497 684 CANTU' Mirko M 1985 M2 48 ASD SESSANTALLORA 04:04:35.28 00:00:00.00 02:02:17
498 2160 CHESI Andrea M 1962 M6 56 ASD MTB CLUB CECINA 04:05:05.78 00:00:00.00 02:02:32
499 2165 LENZI Andrea M 1982 M2 49 ASD MTB CLUB CECINA 04:05:06.78 00:00:00.00 02:02:33
500 272 TURCHI Alberto M 1955 M8 6 ASD CICLISSIMO BIKE TEAM 04:07:22.78 00:00:00.00 02:03:41
501 578 SANTONI Dario M 1985 M2 50 SVALVOLATI IN MTB 04:07:55.03 00:00:00.00 02:03:57
502 119 VENIERI Vania F 1970 W3 5 ASD BICI CLUB MONTE SAN PIETRO 04:08:42.03 00:00:00.00 02:04:21
503 853 IACOPONI Eraldo M 1967 M5 84 TEAM SPEEDY BIKE 04:08:53.53 00:00:00.00 02:04:26
504 2099 GAVAGNI Remo M 1963 M6 57 DONKEY BIKE CLUB SINALUNGA 04:08:55.52 00:00:00.00 02:04:27
505 2313 ROMANO Armando giuseppe M 1977 M3 61 ASD RAM BIKE 04:09:24.02 00:00:00.00 02:04:42
506 2586 MONTAGNER Simone M 1969 CT 7 INDIVIDUALE 04:09:26.52 00:00:00.00 02:04:43
507 842 QUINTAROLLO Alex M 1978 M3 62 ASD BIBIONE CYCLING TEAM 04:09:36.77 00:00:00.00 02:04:48
508 2077 LEONARDO Alessandro M 1971 M5 85 TEAM BIKE LARCIANO ASD 04:09:57.77 00:00:00.00 02:04:58
509 464 CORZANI Cesare M 1973 M4 80 TRIAL BIKE LUGO 04:10:11.78 00:00:00.00 02:05:05
510 677 CANTA Canio M 1979 M3 63 UCD ARCETANA 04:10:20.28 00:00:00.00 02:05:10
511 656 GABRIEL Luigi M 1959 M7 22 MTB RED DEVILS LATINA 04:12:14.02 00:00:00.00 02:06:07
512 658 MORELLI Ruggiero M 1974 M4 81 MTB RED DEVILS LATINA 04:12:14.02 00:00:00.00 02:06:07
513 848 BARTALINI Silvio M 1978 M3 64 POL. TAVARNELLE 04:12:37.78 00:00:00.00 02:06:18
514 881 DI GIACOMO Alfredo M 1965 M6 58 ASD CICLOSPORT POGGIBONSI 04:12:47.78 00:00:00.00 02:06:23
515 726 FRANCESCHI Massimiliano M 1968 M5 86 ASD SESSANTALLORA 04:13:08.52 00:00:00.00 02:06:34
516 462 FERRARO Michele M 1968 M5 87 ASD SESSANTALLORA 04:13:08.77 00:00:00.00 02:06:34
517 727 SETTEMBRINO Salvatore M 1977 M3 65 ASD SESSANTALLORA 04:13:08.77 00:00:00.00 02:06:34
518 673 FIORENZANI Federico M 1973 M4 82 INDIVIDUALE 04:13:20.27 00:00:00.00 02:06:40
519 355 PACI Filippo M 1976 M4 83 RABITI DURI 04:13:43.76 00:00:00.00 02:06:51
520 650 DI CHIARA Domenico M 1966 M6 59 CICLOPICENTIA ASD 04:15:27.27 00:00:00.00 02:07:43
521 868 MARSOCCI Evelina F 1968 W3 6 ASD CESENA BIKE 04:16:06.27 00:00:00.00 02:08:03
522 615 GUIDOTTI Paolo M 1963 M6 60 MTB TURBOLENTI 04:16:38.02 00:00:00.00 02:08:19
523 770 MANCUSO Andrea M 1975 M4 84 ASD SAM ENDURO TEAM 04:17:12.65 00:00:00.00 02:08:36
524 239 BARILANI Gianluca M 1966 M6 61 TEAM TODESCO 04:17:13.76 00:00:00.00 02:08:36
525 386 FANUCCHI Franco M 1963 M6 62 TORRETTA BIKE 04:17:38.26 00:00:00.00 02:08:49
526 376 MORINI Gianluca M 1985 M2 51 TORRETTA BIKE 04:17:38.51 00:00:00.00 02:08:49
527 427 FINOCCHI Alessandro M 1970 M5 88 ASD BICI CLUB MONTE SAN PIETRO 04:19:12.25 00:00:00.00 02:09:36
528 2575 COPPI Simone M 1988 CT 8 INDIVIDUALE 04:20:31.25 00:00:00.00 02:10:15
529 716 TAMMARO Nicola M 1975 M4 85 CICLISTICA SALERNITANA NICOLA ROMANO 04:20:57.26 00:00:00.00 02:10:28
530 405 PONGELLI Marco M 1968 M5 89 ASD POLISPORTIVA FORTEZZALAND 04:21:11.00 00:00:00.00 02:10:35
531 666 PAGLI Gianni M 1962 M6 63 FIRENZE FREE RIDE ASD 04:21:17.26 00:00:00.00 02:10:38
532 660 ROMANELLI Alessandro M 1972 M4 86 MTB RED DEVILS LATINA 04:21:46.26 00:00:00.00 02:10:53
533 149 GIOIA Patrizia F 1973 W2 12 ASD MTB CLUB CECINA 04:21:47.01 00:00:00.00 02:10:53
534 2170 SACCHINI Stefano M 1960 M7 23 ASD MTB CLUB CECINA 04:26:57.99 00:00:00.00 02:13:28
535 486 BIAGI Alan M 1972 M4 87 ASD BICI CLUB MONTE SAN PIETRO 04:27:04.50 00:00:00.00 02:13:32
536 13 INGALDI Manuel M 2002 OPEN 27 LIVORNO CYCLING TEAM A.S.D. 04:27:56.24 00:00:00.00 02:13:58
537 890 FERIOLI Valeria M 1970 W3 7 COMITATO UISP PARMA 04:28:23.00 00:00:00.00 02:14:11
538 348 BOANO Massimo M 1984 M2 52 ASD ROERO BIKERS 04:28:47.49 00:00:00.00 02:14:23
539 633 SORRESINA Stefano M 1966 M6 64 POLISPORTIVA PERTICALE 04:30:20.25 00:00:00.00 02:15:10
540 635 PINI Graziano M 1958 M7 24 ARCI UISP VENTURINA 04:30:21.25 00:00:00.00 02:15:10

Classifiche Elaborate da SMS Sport


Pag. 9/10
GF CASTELLO DI MONTERIGGIONI
MONTERIGGIONI (SI) 17/10/2021
LUNGO (54 KM)

Pos Nr. Nominativo Atleta G Nato il Cat Pos Nome Squadra Tempo RTime Km/h
541 344 ALBERTINO *** Diego M 1975 M4 88 MANGO BIKE 04:30:35.99 00:00:00.00 02:15:17
542 540 SARACINO Laura emanuela F 1972 W2 13 ASD SID STRENZ I DENT SPORT TEAM 04:30:48.75 00:00:00.00 02:15:24
543 630 PISANI Carlo M 1970 M5 90 ASD VELO CLUB CARRARA 04:31:34.49 00:00:00.00 02:15:47
544 631 TONELLI Stefano M 1975 M4 89 ASD VELO CLUB LUNIGIANA 04:31:34.99 00:00:00.00 02:15:47
545 351 BONI Danilo M 1962 M6 65 ASD BICI CLUB MONTE SAN PIETRO 04:32:30.99 00:00:00.00 02:16:15
546 352 MIRANDOLA Stefano M 1964 M6 66 ASD BICI CLUB MONTE SAN PIETRO 04:35:29.49 00:00:00.00 02:17:44
547 637 PALADINI Filippo M 1972 M4 90 POL. PERTICALE UISP 04:35:54.73 00:00:00.00 02:17:57
548 636 LISINI Furio M 1971 M5 91 POL. PERTICALE UISP 04:35:55.01 00:00:00.00 02:17:57
549 802 BONAIUTI Giuseppe M 1951 M8 7 ASD CICLISSIMO BIKE TEAM 04:37:48.23 00:00:00.00 02:18:54
550 698 D'AMODIO Antimo M 1971 M5 92 TUSCANY GO WELLNESS E SPORT 04:37:53.22 00:00:00.00 02:18:56
551 2081 BENEDETTI Silverio M 1964 M6 67 LEOGYM SSD ARL 04:38:43.47 00:00:00.00 02:19:21
552 357 POLIDORI Marziano M 1953 M8 8 MTB POMEZIA ASD 04:40:28.98 00:00:00.00 02:20:14
553 417 GELATI Barbara F 1963 W3 8 ASD GS POPPI BP MOTION 04:40:56.73 00:00:00.00 02:20:28
554 494 CENNI Barbara F 1977 W2 14 ASD SID STRENZ I DENT SPORT TEAM 04:40:57.48 00:00:00.00 02:20:28
555 712 MARCHI Massimo M 1969 M5 93 ASD BITONE - BOLOGNA 04:41:35.23 00:00:00.00 02:20:47
556 436 DI GIULI Cristian M 1995 ELMT 49 ASD TEAM BIKE VALCONCA 04:46:38.71 00:00:00.00 02:23:19
557 197 DEPAUL Gabriele M 1988 M1 42 TEAM SPACEBIKES 01:01:30.80 00:00:00.00 01:01:30
558 28 ROSELLI Francesco M 1981 OPEN 28 ASD BIKING RACING TEAM 01:04:46.02 00:00:00.00 01:04:46
559 91 FANCIULLI Claudio M 1987 M1 43 ASD MTBIKE ARGENTARIO 01:07:27.55 00:00:00.00 01:07:27
560 76 DE SANTIS Stefano M 1977 M3 66 DONKEY BIKE CLUB SINALUNGA 01:07:32.05 00:00:00.00 01:07:32
561 254 GRELLA Samuele M 1988 M1 44 TUTTO BIKE TEAM 01:08:36.54 00:00:00.00 01:08:36
562 236 ZULLO Andrea M 1986 M2 53 CLIMB BIKE TEAM 01:09:13.30 00:00:00.00 01:09:13
563 2226 LEONI Francesco M 1980 M3 67 ASD STAR BIKE 01:09:45.54 00:00:00.00 01:09:45
564 2050 MENCATTINI Stefano M 1981 M3 68 GS AVIS PRATOVECCHIO 01:09:46.04 00:00:00.00 01:09:46
565 84 BELLINI Ivan M 1971 M5 94 BOMBARDIER SQUADRA CORSE ASD 01:13:21.54 00:00:00.00 01:13:21
566 2319 BONACINA Luca M 1983 M2 54 TEAM SPACEBIKES 01:13:42.54 00:00:00.00 01:13:42
567 228 MASSARO PESCINI Gianluca M 1981 M3 69 SC PEDALE SENESE 01:14:03.79 00:00:00.00 01:14:03
568 488 LAROCCA Andrea orazio ferruccio M 1987 M1 45 POLISPORTIVA BERNATE 01:16:43.55 00:00:00.00 01:16:43
569 2010 CORSI Andrea M 1977 M3 70 GS MONTEMARCIANO 01:18:21.28 00:00:00.00 01:18:21
570 811 LAMI Alessio M 1984 M2 55 ASD BY BIKE 01:19:58.03 00:00:00.00 01:19:58
571 670 PARTENGO Davide M 1974 M4 91 ASD 6.9 TEAM 01:21:04.04 00:00:00.00 01:21:04
572 147 FRANCESCHINI Patrizio M 1959 M7 25 ASD CERRO BIKE 01:21:49.52 00:00:00.00 01:21:49
573 593 FESTA Paolo M 1975 M4 92 FUNCTIONAL FIT 01:27:28.76 00:00:00.00 01:27:28
574 2561 ANDREOTTI Federico M 1986 CT 9 INDIVIDUALE 01:28:11.96 00:00:00.00 01:28:11
575 849 MAFFI Alessandro M 1966 M6 68 CICLI TADDEI 01:28:32.77 00:00:00.00 01:28:32
576 580 PUCCI Paolo M 1976 M4 93 SVALVOLATI IN MTB 01:37:28.51 00:00:00.00 01:37:28
577 14 ROSSI Alessandro M 1964 OPEN 29 ASD TORPADO-SUDTIROL INTERNATIONAL MTB PRO TEAM
01:38:28.75 00:00:00.00 01:38:28
578 812 CATELLANI Enrico M 1984 M2 56 TEAM SCULAZZO ITALIA 01:42:30.74 00:00:00.00 01:42:30
579 579 CASTELLANI Gabriele M 1979 M3 71 SVALVOLATI IN MTB 01:45:41.50 00:00:00.00 01:45:41
580 403 PROSPERI Leonardo M 1975 M4 94 FIRENZE FREE RIDE ASD 01:47:18.73 00:00:00.00 01:47:18
581 598 FERRANTE Rocco M 1967 M5 95 FUNCTIONAL FIT 01:47:52.99 00:00:00.00 01:47:52
582 594 SANTESE Emanuela F 1977 W2 15 FUNCTIONAL FIT 01:48:11.24 00:00:00.00 01:48:11
583 597 ZAPPACOSTA Mauro M 1981 M3 72 FUNCTIONAL FIT 01:48:13.99 00:00:00.00 01:48:13
584 325 NICOLARDI Pasquale M 1973 M4 95 MTB POMEZIA ASD 01:49:55.73 00:00:00.00 01:49:55
585 144 FAZZUOLI Roberto M 1959 M7 26 MTB RACE SUBBIANO 01:50:41.49 00:00:00.00 01:50:41
586 310 FORNACIARI Gianluigi M 1971 M5 96 MTB POMEZIA ASD 01:50:54.98 00:00:00.00 01:50:54
587 2298 RIZZI Maurizio M 1954 M8 9 LISSONE MTB ASD 01:56:05.98 00:00:00.00 01:56:05
588 739 TREPPIEDI Guido M 1973 M4 96 ASD MONTECROCETRAILS 02:11:53.95 00:00:00.00 02:11:53
589 760 DEL TURCO Sara F 1987 W1 7 ASD MONTECROCETRAILS 02:11:55.95 00:00:00.00 02:11:55
590 519 CURLO Fabrizio M 1989 M1 39 TEAM DEL CAPITANO ASD 03:43:11.57 00:00:00.00 01:51:35